sensor_id;sensor_type;location;lat;lon;timestamp;P1;durP1;ratioP1;P2;durP2;ratioP2
37341;SDS011;58643;49.052;8.518;2022-11-15T14:35:50;7.53;;;4.55;;
37341;SDS011;58643;49.052;8.518;2022-11-15T14:38:16;11.23;;;4.25;;
37341;SDS011;58643;49.052;8.518;2022-11-15T14:40:42;10.77;;;3.88;;
37341;SDS011;58643;49.052;8.518;2022-11-15T14:43:09;11.68;;;3.63;;
37341;SDS011;58643;49.052;8.518;2022-11-15T14:45:36;8.73;;;4.13;;
37341;SDS011;58643;49.052;8.518;2022-11-15T14:48:02;8.65;;;3.90;;
37341;SDS011;58643;49.052;8.518;2022-11-15T14:50:28;9.73;;;3.65;;
37341;SDS011;58643;49.052;8.518;2022-11-15T14:52:53;6.50;;;4.15;;
37341;SDS011;58643;49.052;8.518;2022-11-15T14:55:24;6.40;;;3.15;;
37341;SDS011;58643;49.052;8.518;2022-11-15T14:57:56;8.27;;;3.60;;
37341;SDS011;58643;49.052;8.518;2022-11-15T15:00:22;6.57;;;3.60;;
37341;SDS011;58643;49.052;8.518;2022-11-15T15:02:49;6.60;;;3.63;;
37341;SDS011;58643;49.052;8.518;2022-11-15T15:07:50;7.18;;;3.17;;
37341;SDS011;58643;49.052;8.518;2022-11-15T15:10:18;6.55;;;3.60;;
37341;SDS011;58643;49.052;8.518;2022-11-15T15:12:44;9.70;;;3.78;;
37341;SDS011;58643;49.052;8.518;2022-11-15T15:15:14;7.85;;;4.00;;
37341;SDS011;58643;49.052;8.518;2022-11-15T15:17:41;9.32;;;3.58;;
37341;SDS011;58643;49.052;8.518;2022-11-15T15:20:07;6.70;;;3.88;;
37341;SDS011;58643;49.052;8.518;2022-11-15T15:22:34;6.18;;;3.17;;
37341;SDS011;58643;49.052;8.518;2022-11-15T15:24:59;5.93;;;3.70;;
37341;SDS011;58643;49.052;8.518;2022-11-15T15:27:25;9.70;;;3.50;;
37341;SDS011;58643;49.052;8.518;2022-11-15T15:29:50;8.07;;;3.50;;
37341;SDS011;58643;49.052;8.518;2022-11-15T15:32:16;8.52;;;3.42;;
37341;SDS011;58643;49.052;8.518;2022-11-15T15:34:42;5.80;;;3.58;;
37341;SDS011;58643;49.052;8.518;2022-11-15T15:39:50;6.57;;;3.08;;
37341;SDS011;58643;49.052;8.518;2022-11-15T15:42:20;6.78;;;2.92;;
37341;SDS011;58643;49.052;8.518;2022-11-15T15:44:47;12.27;;;5.18;;
37341;SDS011;58643;49.052;8.518;2022-11-15T15:47:13;8.20;;;3.72;;
37341;SDS011;58643;49.052;8.518;2022-11-15T15:49:42;6.30;;;3.70;;
37341;SDS011;58643;49.052;8.518;2022-11-15T15:52:08;8.75;;;3.95;;
37341;SDS011;58643;49.052;8.518;2022-11-15T15:54:33;10.30;;;4.57;;
37341;SDS011;58643;49.052;8.518;2022-11-15T15:56:59;7.38;;;3.28;;
37341;SDS011;58643;49.052;8.518;2022-11-15T15:59:24;6.07;;;3.40;;
37341;SDS011;58643;49.052;8.518;2022-11-15T16:01:50;6.88;;;4.00;;
37341;SDS011;58643;49.052;8.518;2022-11-15T16:04:15;8.95;;;4.32;;
37341;SDS011;58643;49.052;8.518;2022-11-15T16:06:41;7.03;;;3.72;;
37341;SDS011;58643;49.052;8.518;2022-11-15T16:09:12;6.47;;;3.22;;
37341;SDS011;58643;49.052;8.518;2022-11-15T16:11:39;4.45;;;2.97;;
37341;SDS011;58643;49.052;8.518;2022-11-15T16:14:04;6.57;;;3.08;;
37341;SDS011;58643;49.052;8.518;2022-11-15T16:16:30;5.30;;;2.50;;
37341;SDS011;58643;49.052;8.518;2022-11-15T16:18:56;4.22;;;2.47;;
37341;SDS011;58643;49.052;8.518;2022-11-15T16:21:21;4.63;;;2.58;;
37341;SDS011;58643;49.052;8.518;2022-11-15T16:23:47;4.13;;;2.10;;
37341;SDS011;58643;49.052;8.518;2022-11-15T16:26:24;4.10;;;2.58;;
37341;SDS011;58643;49.052;8.518;2022-11-15T16:28:54;6.90;;;3.00;;
37341;SDS011;58643;49.052;8.518;2022-11-15T16:31:22;6.00;;;2.95;;
37341;SDS011;58643;49.052;8.518;2022-11-15T16:33:48;5.43;;;2.58;;
37341;SDS011;58643;49.052;8.518;2022-11-15T16:36:18;6.10;;;2.70;;
37341;SDS011;58643;49.052;8.518;2022-11-15T16:38:43;5.30;;;3.08;;
37341;SDS011;58643;49.052;8.518;2022-11-15T16:41:09;4.50;;;2.88;;
37341;SDS011;58643;49.052;8.518;2022-11-15T16:43:35;7.32;;;3.28;;
37341;SDS011;58643;49.052;8.518;2022-11-15T16:46:03;5.38;;;2.70;;
37341;SDS011;58643;49.052;8.518;2022-11-15T16:48:34;5.05;;;2.80;;
37341;SDS011;58643;49.052;8.518;2022-11-15T16:50:59;4.65;;;2.70;;
37341;SDS011;58643;49.052;8.518;2022-11-15T16:53:25;6.13;;;2.90;;
37341;SDS011;58643;49.052;8.518;2022-11-15T16:55:52;4.85;;;2.83;;
37341;SDS011;58643;49.052;8.518;2022-11-15T16:58:19;5.80;;;2.85;;
37341;SDS011;58643;49.052;8.518;2022-11-15T17:00:45;4.97;;;3.10;;
37341;SDS011;58643;49.052;8.518;2022-11-15T17:03:18;7.55;;;3.80;;
37341;SDS011;58643;49.052;8.518;2022-11-15T17:05:44;7.20;;;3.15;;
37341;SDS011;58643;49.052;8.518;2022-11-15T17:08:10;9.10;;;3.33;;
37341;SDS011;58643;49.052;8.518;2022-11-15T17:10:37;5.65;;;3.03;;
37341;SDS011;58643;49.052;8.518;2022-11-15T17:15:31;9.15;;;3.53;;
37341;SDS011;58643;49.052;8.518;2022-11-15T17:17:56;12.00;;;5.85;;
37341;SDS011;58643;49.052;8.518;2022-11-15T17:20:23;15.40;;;5.85;;
37341;SDS011;58643;49.052;8.518;2022-11-15T17:22:49;11.02;;;6.05;;
37341;SDS011;58643;49.052;8.518;2022-11-15T17:25:16;12.38;;;6.38;;
37341;SDS011;58643;49.052;8.518;2022-11-15T17:27:42;5.60;;;3.38;;
37341;SDS011;58643;49.052;8.518;2022-11-15T17:30:08;5.57;;;2.92;;
37341;SDS011;58643;49.052;8.518;2022-11-15T17:32:37;4.95;;;3.28;;
37341;SDS011;58643;49.052;8.518;2022-11-15T17:35:03;6.45;;;3.25;;
37341;SDS011;58643;49.052;8.518;2022-11-15T17:37:32;4.82;;;3.03;;
37341;SDS011;58643;49.052;8.518;2022-11-15T17:39:58;5.82;;;2.88;;
37341;SDS011;58643;49.052;8.518;2022-11-15T17:42:24;7.57;;;3.70;;
37341;SDS011;58643;49.052;8.518;2022-11-15T17:44:50;5.78;;;3.15;;
37341;SDS011;58643;49.052;8.518;2022-11-15T17:47:15;6.60;;;3.08;;
37341;SDS011;58643;49.052;8.518;2022-11-15T17:49:41;5.43;;;2.90;;
37341;SDS011;58643;49.052;8.518;2022-11-15T17:52:06;5.75;;;3.00;;
37341;SDS011;58643;49.052;8.518;2022-11-15T17:54:32;6.10;;;2.90;;
37341;SDS011;58643;49.052;8.518;2022-11-15T17:56:58;6.75;;;2.90;;
37341;SDS011;58643;49.052;8.518;2022-11-15T17:59:23;4.30;;;2.50;;
37341;SDS011;58643;49.052;8.518;2022-11-15T18:01:49;6.70;;;2.60;;
37341;SDS011;58643;49.052;8.518;2022-11-15T18:04:15;7.72;;;3.25;;
37341;SDS011;58643;49.052;8.518;2022-11-15T18:06:41;5.80;;;2.75;;
37341;SDS011;58643;49.052;8.518;2022-11-15T18:09:07;5.43;;;2.88;;
37341;SDS011;58643;49.052;8.518;2022-11-15T18:11:34;3.53;;;2.03;;
37341;SDS011;58643;49.052;8.518;2022-11-15T18:14:03;5.53;;;3.10;;
37341;SDS011;58643;49.052;8.518;2022-11-15T18:16:32;10.98;;;2.80;;
37341;SDS011;58643;49.052;8.518;2022-11-15T18:18:59;4.15;;;3.00;;
37341;SDS011;58643;49.052;8.518;2022-11-15T18:21:28;6.95;;;3.22;;
37341;SDS011;58643;49.052;8.518;2022-11-15T18:23:56;6.60;;;3.42;;
37341;SDS011;58643;49.052;8.518;2022-11-15T18:26:24;3.38;;;2.20;;
37341;SDS011;58643;49.052;8.518;2022-11-15T18:28:55;3.28;;;1.80;;
37341;SDS011;58643;49.052;8.518;2022-11-15T18:31:27;4.07;;;2.22;;
37341;SDS011;58643;49.052;8.518;2022-11-15T18:33:54;9.18;;;3.90;;
37341;SDS011;58643;49.052;8.518;2022-11-15T18:36:23;11.38;;;6.25;;
37341;SDS011;58643;49.052;8.518;2022-11-15T18:38:54;15.95;;;8.38;;
37341;SDS011;58643;49.052;8.518;2022-11-15T18:41:20;5.15;;;2.55;;
37341;SDS011;58643;49.052;8.518;2022-11-15T18:43:49;8.73;;;2.20;;
37341;SDS011;58643;49.052;8.518;2022-11-15T18:46:17;5.93;;;2.15;;
37341;SDS011;58643;49.052;8.518;2022-11-15T18:48:44;3.67;;;2.03;;
37341;SDS011;58643;49.052;8.518;2022-11-15T18:51:11;7.55;;;2.53;;
37341;SDS011;58643;49.052;8.518;2022-11-15T18:53:39;3.97;;;2.03;;
37341;SDS011;58643;49.052;8.518;2022-11-15T18:56:09;5.15;;;2.35;;
37341;SDS011;58643;49.052;8.518;2022-11-15T18:58:46;5.07;;;2.97;;
37341;SDS011;58643;49.052;8.518;2022-11-15T19:01:14;6.57;;;3.03;;
37341;SDS011;58643;49.052;8.518;2022-11-15T19:03:42;8.10;;;3.63;;
37341;SDS011;58643;49.052;8.518;2022-11-15T19:06:13;11.65;;;6.07;;
37341;SDS011;58643;49.052;8.518;2022-11-15T19:08:41;7.53;;;4.25;;
37341;SDS011;58643;49.052;8.518;2022-11-15T19:13:38;7.30;;;4.18;;
37341;SDS011;58643;49.052;8.518;2022-11-15T19:16:05;8.85;;;5.43;;
37341;SDS011;58643;49.052;8.518;2022-11-15T19:18:31;10.88;;;5.85;;
37341;SDS011;58643;49.052;8.518;2022-11-15T19:21:01;14.57;;;8.73;;
37341;SDS011;58643;49.052;8.518;2022-11-15T19:23:32;10.10;;;6.95;;
37341;SDS011;58643;49.052;8.518;2022-11-15T19:25:59;12.90;;;7.38;;
37341;SDS011;58643;49.052;8.518;2022-11-15T19:28:26;13.70;;;7.55;;
37341;SDS011;58643;49.052;8.518;2022-11-15T19:30:53;13.57;;;7.95;;
37341;SDS011;58643;49.052;8.518;2022-11-15T19:33:26;17.10;;;8.50;;
37341;SDS011;58643;49.052;8.518;2022-11-15T19:35:51;14.10;;;8.60;;
37341;SDS011;58643;49.052;8.518;2022-11-15T19:38:28;17.23;;;9.38;;
37341;SDS011;58643;49.052;8.518;2022-11-15T19:40:58;18.23;;;10.97;;
37341;SDS011;58643;49.052;8.518;2022-11-15T19:43:25;20.17;;;12.90;;
37341;SDS011;58643;49.052;8.518;2022-11-15T19:45:52;20.15;;;12.45;;
37341;SDS011;58643;49.052;8.518;2022-11-15T19:48:21;16.98;;;10.38;;
37341;SDS011;58643;49.052;8.518;2022-11-15T19:50:48;24.00;;;12.25;;
37341;SDS011;58643;49.052;8.518;2022-11-15T19:53:13;18.85;;;11.63;;
37341;SDS011;58643;49.052;8.518;2022-11-15T19:55:39;21.20;;;12.48;;
37341;SDS011;58643;49.052;8.518;2022-11-15T19:58:17;20.05;;;12.27;;
37341;SDS011;58643;49.052;8.518;2022-11-15T20:00:42;19.00;;;11.85;;
37341;SDS011;58643;49.052;8.518;2022-11-15T20:03:08;21.73;;;11.95;;
37341;SDS011;58643;49.052;8.518;2022-11-15T20:05:34;14.05;;;8.90;;
37341;SDS011;58643;49.052;8.518;2022-11-15T20:07:59;11.98;;;6.40;;
37341;SDS011;58643;49.052;8.518;2022-11-15T20:10:25;11.35;;;6.47;;
37341;SDS011;58643;49.052;8.518;2022-11-15T20:12:50;14.27;;;6.80;;
37341;SDS011;58643;49.052;8.518;2022-11-15T20:15:16;11.60;;;7.07;;
37341;SDS011;58643;49.052;8.518;2022-11-15T20:17:41;13.45;;;7.22;;
37341;SDS011;58643;49.052;8.518;2022-11-15T20:20:07;12.43;;;7.57;;
37341;SDS011;58643;49.052;8.518;2022-11-15T20:22:33;14.70;;;7.88;;
37341;SDS011;58643;49.052;8.518;2022-11-15T20:24:59;13.30;;;8.30;;
37341;SDS011;58643;49.052;8.518;2022-11-15T20:27:24;9.88;;;5.38;;
37341;SDS011;58643;49.052;8.518;2022-11-15T20:29:50;9.05;;;5.65;;
37341;SDS011;58643;49.052;8.518;2022-11-15T20:32:18;8.13;;;4.97;;
